sensor_id;sensor_type;location;lat;lon;timestamp;pressure;altitude;pressure_sealevel;temperature;humidity
58739;BME280;44512;53.046;18.604;2022-08-19T00:07:44;101225.96;;;28.41;46.39
58739;BME280;44512;53.046;18.604;2022-08-19T00:18:12;101221.79;;;28.25;46.65
58739;BME280;44512;53.046;18.604;2022-08-19T00:28:41;101241.87;;;28.08;47.11
58739;BME280;44512;53.046;18.604;2022-08-19T00:39:10;101234.38;;;27.90;47.69
58739;BME280;44512;53.046;18.604;2022-08-19T00:49:43;101229.62;;;27.76;48.12
58739;BME280;44512;53.046;18.604;2022-08-19T01:00:13;101237.28;;;27.66;48.41
58739;BME280;44512;53.046;18.604;2022-08-19T01:10:39;101231.66;;;27.52;48.74
58739;BME280;44512;53.046;18.604;2022-08-19T01:21:10;101235.99;;;27.39;49.19
58739;BME280;44512;53.046;18.604;2022-08-19T01:31:31;101220.52;;;27.33;49.31
58739;BME280;44512;53.046;18.604;2022-08-19T01:41:59;101207.02;;;27.26;49.04
58739;BME280;44512;53.046;18.604;2022-08-19T01:52:27;101208.61;;;27.14;49.16
58739;BME280;44512;53.046;18.604;2022-08-19T02:02:56;101196.00;;;26.97;49.45
58739;BME280;44512;53.046;18.604;2022-08-19T02:13:27;101184.00;;;26.83;49.82
58739;BME280;44512;53.046;18.604;2022-08-19T02:23:53;101173.62;;;26.70;50.04
58739;BME280;44512;53.046;18.604;2022-08-19T02:34:21;101166.55;;;26.59;50.42
58739;BME280;44512;53.046;18.604;2022-08-19T02:44:50;101160.64;;;26.41;50.96
58739;BME280;44512;53.046;18.604;2022-08-19T02:55:18;101170.73;;;26.32;51.42
58739;BME280;44512;53.046;18.604;2022-08-19T03:05:47;101171.97;;;26.21;51.56
58739;BME280;44512;53.046;18.604;2022-08-19T03:16:15;101162.03;;;26.15;51.79
58739;BME280;44512;53.046;18.604;2022-08-19T03:26:46;101167.68;;;26.05;52.09
58739;BME280;44512;53.046;18.604;2022-08-19T03:37:11;101175.28;;;25.94;52.33
58739;BME280;44512;53.046;18.604;2022-08-19T03:47:39;101172.91;;;25.82;52.76
58739;BME280;44512;53.046;18.604;2022-08-19T03:58:08;101166.06;;;25.75;53.10
58739;BME280;44512;53.046;18.604;2022-08-19T04:08:36;101158.58;;;25.70;53.32
58739;BME280;44512;53.046;18.604;2022-08-19T04:19:06;101152.01;;;25.61;53.57
58739;BME280;44512;53.046;18.604;2022-08-19T04:29:33;101165.70;;;25.47;54.01
58739;BME280;44512;53.046;18.604;2022-08-19T04:40:04;101153.53;;;25.43;54.30
58739;BME280;44512;53.046;18.604;2022-08-19T04:50:30;101168.28;;;25.38;54.62
58739;BME280;44512;53.046;18.604;2022-08-19T05:00:58;101198.20;;;25.36;55.01
58739;BME280;44512;53.046;18.604;2022-08-19T05:11:32;101182.10;;;25.43;55.00
58739;BME280;44512;53.046;18.604;2022-08-19T05:21:55;101183.15;;;25.48;54.96
58739;BME280;44512;53.046;18.604;2022-08-19T05:32:23;101162.40;;;25.45;55.10
58739;BME280;44512;53.046;18.604;2022-08-19T05:42:51;101152.39;;;25.49;55.28
58739;BME280;44512;53.046;18.604;2022-08-19T05:53:20;101178.69;;;25.52;55.43
58739;BME280;44512;53.046;18.604;2022-08-19T06:03:48;101199.20;;;25.51;55.57
58739;BME280;44512;53.046;18.604;2022-08-19T06:14:20;101177.52;;;25.58;55.77
58739;BME280;44512;53.046;18.604;2022-08-19T06:24:45;101196.57;;;25.69;55.69
58739;BME280;44512;53.046;18.604;2022-08-19T06:35:13;101186.24;;;25.80;55.56
58739;BME280;44512;53.046;18.604;2022-08-19T06:45:42;101192.74;;;25.94;55.53
58739;BME280;44512;53.046;18.604;2022-08-19T06:56:11;101179.58;;;26.10;55.48
58739;BME280;44512;53.046;18.604;2022-08-19T07:06:39;101159.93;;;26.55;54.54
58739;BME280;44512;53.046;18.604;2022-08-19T07:17:09;101160.37;;;27.05;53.08
58739;BME280;44512;53.046;18.604;2022-08-19T07:27:35;101157.22;;;27.82;51.17
58739;BME280;44512;53.046;18.604;2022-08-19T07:38:04;101154.38;;;28.28;49.19
58739;BME280;44512;53.046;18.604;2022-08-19T07:48:32;101153.25;;;28.57;48.46
58739;BME280;44512;53.046;18.604;2022-08-19T07:59:00;101158.59;;;28.80;48.24
58739;BME280;44512;53.046;18.604;2022-08-19T08:09:33;101171.16;;;29.05;47.19
58739;BME280;44512;53.046;18.604;2022-08-19T08:19:57;101166.74;;;29.27;46.33
58739;BME280;44512;53.046;18.604;2022-08-19T08:30:27;101158.87;;;29.51;45.27
58739;BME280;44512;53.046;18.604;2022-08-19T08:41:00;101158.01;;;29.65;44.31
58739;BME280;44512;53.046;18.604;2022-08-19T09:01:50;101132.86;;;29.87;43.64
58739;BME280;44512;53.046;18.604;2022-08-19T09:12:25;101146.39;;;30.02;41.21
58739;BME280;44512;53.046;18.604;2022-08-19T09:22:47;101132.56;;;30.20;41.36
58739;BME280;44512;53.046;18.604;2022-08-19T09:33:15;101122.41;;;30.32;42.03
58739;BME280;44512;53.046;18.604;2022-08-19T09:43:47;101131.30;;;30.43;42.28
58739;BME280;44512;53.046;18.604;2022-08-19T09:54:12;101118.34;;;30.47;41.61
58739;BME280;44512;53.046;18.604;2022-08-19T10:04:41;101119.52;;;30.55;41.91
58739;BME280;44512;53.046;18.604;2022-08-19T10:15:09;101112.77;;;30.65;42.03
58739;BME280;44512;53.046;18.604;2022-08-19T10:25:40;101113.31;;;30.75;41.80
58739;BME280;44512;53.046;18.604;2022-08-19T10:36:11;101096.39;;;30.89;42.10
58739;BME280;44512;53.046;18.604;2022-08-19T10:51:51;101101.16;;;31.23;42.13
58739;BME280;44512;53.046;18.604;2022-08-19T11:02:20;101078.44;;;31.42;40.86
58739;BME280;44512;53.046;18.604;2022-08-19T11:12:48;101072.65;;;31.56;40.35
58739;BME280;44512;53.046;18.604;2022-08-19T11:23:16;101066.87;;;31.61;39.47
58739;BME280;44512;53.046;18.604;2022-08-19T11:33:45;101051.27;;;31.51;39.41
58739;BME280;44512;53.046;18.604;2022-08-19T11:44:14;101023.00;;;31.44;39.96
58739;BME280;44512;53.046;18.604;2022-08-19T11:54:41;101021.36;;;31.43;39.72
58739;BME280;44512;53.046;18.604;2022-08-19T12:05:10;101013.45;;;31.45;39.68
58739;BME280;44512;53.046;18.604;2022-08-19T12:15:39;101023.29;;;31.51;39.59
58739;BME280;44512;53.046;18.604;2022-08-19T12:26:09;101029.87;;;31.55;39.44
58739;BME280;44512;53.046;18.604;2022-08-19T12:36:35;101027.04;;;31.64;39.40
58739;BME280;44512;53.046;18.604;2022-08-19T12:47:03;101039.34;;;31.72;39.13
58739;BME280;44512;53.046;18.604;2022-08-19T12:57:32;101020.58;;;31.81;38.57
58739;BME280;44512;53.046;18.604;2022-08-19T13:08:00;101019.50;;;31.94;38.34
58739;BME280;44512;53.046;18.604;2022-08-19T13:18:28;101024.23;;;32.02;38.53
58739;BME280;44512;53.046;18.604;2022-08-19T13:28:56;101015.45;;;32.12;38.22
58739;BME280;44512;53.046;18.604;2022-08-19T13:39:25;101022.29;;;32.24;37.33
58739;BME280;44512;53.046;18.604;2022-08-19T13:49:53;101019.62;;;32.36;36.37
58739;BME280;44512;53.046;18.604;2022-08-19T14:00:23;101009.14;;;32.45;37.03
58739;BME280;44512;53.046;18.604;2022-08-19T14:10:50;101006.61;;;32.94;36.42
58739;BME280;44512;53.046;18.604;2022-08-19T14:21:20;101004.20;;;33.62;35.58
58739;BME280;44512;53.046;18.604;2022-08-19T14:31:46;100993.69;;;34.08;34.67
58739;BME280;44512;53.046;18.604;2022-08-19T14:42:15;100999.36;;;34.36;34.35
58739;BME280;44512;53.046;18.604;2022-08-19T14:52:43;100990.52;;;34.62;32.91
58739;BME280;44512;53.046;18.604;2022-08-19T15:03:16;100980.63;;;34.81;32.65
58739;BME280;44512;53.046;18.604;2022-08-19T15:13:44;100987.49;;;34.95;32.49
58739;BME280;44512;53.046;18.604;2022-08-19T15:24:12;100994.90;;;35.32;32.32
58739;BME280;44512;53.046;18.604;2022-08-19T15:34:41;100982.49;;;35.48;32.29
58739;BME280;44512;53.046;18.604;2022-08-19T15:45:11;100981.84;;;35.55;33.04
58739;BME280;44512;53.046;18.604;2022-08-19T15:55:42;100977.47;;;35.42;33.14
58739;BME280;44512;53.046;18.604;2022-08-19T16:06:06;100976.47;;;35.66;32.98
58739;BME280;44512;53.046;18.604;2022-08-19T16:16:35;100984.09;;;35.81;33.11
58739;BME280;44512;53.046;18.604;2022-08-19T16:27:02;100979.80;;;35.87;33.05
58739;BME280;44512;53.046;18.604;2022-08-19T16:37:31;100979.55;;;35.77;33.61
58739;BME280;44512;53.046;18.604;2022-08-19T16:47:59;100982.75;;;35.59;34.02
58739;BME280;44512;53.046;18.604;2022-08-19T16:58:28;101001.38;;;35.48;34.46
58739;BME280;44512;53.046;18.604;2022-08-19T17:08:59;101013.85;;;35.35;34.38
58739;BME280;44512;53.046;18.604;2022-08-19T17:19:24;101004.84;;;35.13;34.80
58739;BME280;44512;53.046;18.604;2022-08-19T17:29:52;101011.99;;;34.95;34.89
58739;BME280;44512;53.046;18.604;2022-08-19T17:40:21;101025.30;;;34.70;34.83
58739;BME280;44512;53.046;18.604;2022-08-19T17:50:49;101019.39;;;34.35;35.18
58739;BME280;44512;53.046;18.604;2022-08-19T18:01:17;101027.40;;;34.08;35.53
58739;BME280;44512;53.046;18.604;2022-08-19T18:11:46;101040.23;;;33.85;35.88
58739;BME280;44512;53.046;18.604;2022-08-19T18:22:24;101047.03;;;33.72;36.10
58739;BME280;44512;53.046;18.604;2022-08-19T18:32:43;101045.84;;;33.60;36.37
58739;BME280;44512;53.046;18.604;2022-08-19T18:43:12;101032.49;;;33.45;36.69
58739;BME280;44512;53.046;18.604;2022-08-19T18:53:40;101051.59;;;33.31;36.97
58739;BME280;44512;53.046;18.604;2022-08-19T19:04:08;101057.86;;;33.15;37.36
58739;BME280;44512;53.046;18.604;2022-08-19T19:14:38;101064.57;;;33.02;37.72
58739;BME280;44512;53.046;18.604;2022-08-19T19:25:04;101056.58;;;32.92;38.09
58739;BME280;44512;53.046;18.604;2022-08-19T19:35:32;101058.14;;;32.81;38.47
58739;BME280;44512;53.046;18.604;2022-08-19T19:46:01;101073.73;;;32.70;38.69
58739;BME280;44512;53.046;18.604;2022-08-19T19:56:29;101073.47;;;32.62;38.90
58739;BME280;44512;53.046;18.604;2022-08-19T20:06:57;101080.61;;;32.51;39.14
58739;BME280;44512;53.046;18.604;2022-08-19T20:17:26;101091.08;;;32.42;39.48
58739;BME280;44512;53.046;18.604;2022-08-19T20:27:54;101087.48;;;32.33;40.11
58739;BME280;44512;53.046;18.604;2022-08-19T20:38:22;101100.70;;;32.24;40.38
58739;BME280;44512;53.046;18.604;2022-08-19T20:48:51;101138.49;;;32.09;41.86
58739;BME280;44512;53.046;18.604;2022-08-19T20:59:20;101135.38;;;32.10;41.34
58739;BME280;44512;53.046;18.604;2022-08-19T21:09:48;101133.93;;;32.34;40.54
58739;BME280;44512;53.046;18.604;2022-08-19T21:20:16;101129.60;;;32.45;40.77
58739;BME280;44512;53.046;18.604;2022-08-19T21:30:44;101126.41;;;32.55;40.60
58739;BME280;44512;53.046;18.604;2022-08-19T21:41:12;101120.13;;;32.58;40.44
58739;BME280;44512;53.046;18.604;2022-08-19T21:51:41;101113.10;;;32.52;40.71
58739;BME280;44512;53.046;18.604;2022-08-19T22:02:12;101115.13;;;32.43;40.54
58739;BME280;44512;53.046;18.604;2022-08-19T22:12:40;101132.64;;;32.31;40.68
58739;BME280;44512;53.046;18.604;2022-08-19T22:23:07;101161.49;;;32.23;40.86
58739;BME280;44512;53.046;18.604;2022-08-19T22:33:34;101178.20;;;32.11;41.52
58739;BME280;44512;53.046;18.604;2022-08-19T22:44:03;101177.91;;;31.95;42.18
58739;BME280;44512;53.046;18.604;2022-08-19T22:54:31;101189.11;;;31.78;43.55
58739;BME280;44512;53.046;18.604;2022-08-19T23:05:01;101226.01;;;31.62;44.38
58739;BME280;44512;53.046;18.604;2022-08-19T23:15:31;101231.30;;;31.38;44.03
58739;BME280;44512;53.046;18.604;2022-08-19T23:25:56;101190.28;;;31.16;43.89
58739;BME280;44512;53.046;18.604;2022-08-19T23:36:25;101180.59;;;31.05;44.03
58739;BME280;44512;53.046;18.604;2022-08-19T23:46:52;101154.92;;;30.94;44.02
58739;BME280;44512;53.046;18.604;2022-08-19T23:57:21;101175.96;;;30.83;44.34
